Helsby, United Kingdom
Current Conditions -  °F | °C
As of 4:20 AM on Friday 31 Oct 2014 (Local Time) from EGGP Reporting Station
Broken Clouds Broken Clouds  
Wind Chill: 57°   Ceiling: 3500
Heat Index: 57°   Visibility: 6mi
Dew Point: 55°   Wind: 10mph
Humidity: 94%   Direction: 140°SE
Pressure: 29.88"   Gusts: NA
Location:  53.27°N, 2.77°W
Report Text: EGGP 310420Z 14009KT 9999 BKN035 14/13 Q1012
Loading
Personal Weather Stations






























Interactive Weather Map
Tropical Storm Tracking
New forecast layout! Learn more

10-Day Weather Forecast

Advertisements
Track Severe Weather on mobile